Anch, Alaska
Current Conditions -  °F | °C
As of 5:58 AM on Friday 24 Oct 2014 (Local Time) from PAED Reporting Station
Overcast Overcast  
Wind Chill: 25°   Ceiling: 6500
Heat Index: 25°   Visibility: 10mi
Dew Point: 20°   Wind: 2mph
Humidity: 83%   Direction: 80°E
Pressure: 29.77"   Gusts: NA
Location:  61.2265°N, 149.62°W
Report Text: PAED 241358Z AUTO 08002KT 10SM OVC065 M04/M06 A2977 RMK AO2 SLP079 T10391064 $
Loading
Personal Weather Stations






























Interactive Weather Map
Tropical Storm Tracking
New forecast layout! Learn more

10-Day Weather Forecast

Advertisements
Track Severe Weather on mobile